createdAt,value
2022-10-20T00:01:03.399Z,1.90
2022-10-20T00:06:03.342Z,2.00
2022-10-20T00:11:03.269Z,2.00
2022-10-20T00:16:03.210Z,2.00
2022-10-20T00:21:03.137Z,2.00
2022-10-20T00:26:03.080Z,1.79
2022-10-20T00:31:03.008Z,1.79
2022-10-20T00:36:02.950Z,1.79
2022-10-20T00:41:02.886Z,1.79
2022-10-20T00:46:02.821Z,1.90
2022-10-20T00:51:02.756Z,1.60
2022-10-20T00:56:02.694Z,1.79
2022-10-20T01:01:02.625Z,1.90
2022-10-20T01:06:02.560Z,1.70
2022-10-20T01:11:02.493Z,1.90
2022-10-20T01:16:02.437Z,2.00
2022-10-20T01:21:02.354Z,2.09
2022-10-20T01:26:02.307Z,2.20
2022-10-20T01:31:02.222Z,1.79
2022-10-20T01:36:02.173Z,1.70
2022-10-20T01:41:02.097Z,2.59
2022-10-20T01:46:02.041Z,2.00
2022-10-20T01:51:01.957Z,2.09
2022-10-20T01:56:01.896Z,2.79
2022-10-20T02:01:01.826Z,2.70
2022-10-20T02:06:01.763Z,2.70
2022-10-20T02:11:01.688Z,2.40
2022-10-20T02:16:01.630Z,2.59
2022-10-20T02:21:01.555Z,2.50
2022-10-20T02:26:01.495Z,2.40
2022-10-20T02:31:01.422Z,2.29
2022-10-20T02:36:01.372Z,2.70
2022-10-20T02:41:01.285Z,2.20
2022-10-20T02:46:01.236Z,2.50
2022-10-20T02:51:01.151Z,2.50
2022-10-20T02:56:01.106Z,2.20
2022-10-20T03:01:01.019Z,2.59
2022-10-20T03:06:00.973Z,2.40
2022-10-20T03:11:00.887Z,2.70
2022-10-20T03:16:00.828Z,2.20
2022-10-20T03:21:00.758Z,2.70
2022-10-20T03:26:00.696Z,2.29
2022-10-20T03:31:00.626Z,2.50
2022-10-20T03:36:00.568Z,2.70
2022-10-20T03:46:00.441Z,2.70
2022-10-20T03:51:00.371Z,3.59
2022-10-20T03:56:00.293Z,3.00
2022-10-20T04:01:00.249Z,3.59
2022-10-20T04:06:00.173Z,3.09
2022-10-20T04:11:00.124Z,2.59
2022-10-20T04:16:00.044Z,2.50
2022-10-20T04:20:59.995Z,3.20
2022-10-20T04:25:59.913Z,4.09
2022-10-20T04:30:59.866Z,3.90
2022-10-20T04:35:59.786Z,4.59
2022-10-20T04:41:01.891Z,5.19
2022-10-20T04:46:01.555Z,5.19
2022-10-20T04:50:59.595Z,4.50
2022-10-20T04:55:59.518Z,5.00
2022-10-20T05:00:59.459Z,5.09
2022-10-20T05:05:59.386Z,5.50
2022-10-20T05:10:59.329Z,5.50
2022-10-20T05:15:59.255Z,6.19
2022-10-20T05:21:14.523Z,5.69
2022-10-20T05:26:00.151Z,6.00
2022-10-20T05:31:01.393Z,5.40
2022-10-20T05:35:58.991Z,6.90
2022-10-20T05:40:58.993Z,5.80
2022-10-20T05:45:59.012Z,6.00
2022-10-20T05:50:59.061Z,6.09
2022-10-20T05:55:59.025Z,6.19
2022-10-20T06:00:59.117Z,5.80
2022-10-20T06:05:59.047Z,6.30
2022-10-20T06:10:59.088Z,5.69
2022-10-20T06:15:58.465Z,5.90
2022-10-20T06:20:58.409Z,5.30
2022-10-20T06:25:58.335Z,6.19
2022-10-20T06:30:58.280Z,6.30
2022-10-20T06:35:58.209Z,5.90
2022-10-20T06:40:58.149Z,5.59
2022-10-20T06:45:58.071Z,4.90
2022-10-20T06:50:58.017Z,5.00
2022-10-20T06:55:57.942Z,5.00
2022-10-20T07:00:57.884Z,4.59
2022-10-20T07:05:57.810Z,4.69
2022-10-20T07:10:57.757Z,4.40
2022-10-20T07:15:57.690Z,8.80
2022-10-20T07:20:57.621Z,4.30
2022-10-20T07:25:57.560Z,4.19
2022-10-20T07:30:57.493Z,4.59
2022-10-20T07:35:57.437Z,4.80
2022-10-20T07:41:00.641Z,4.40
2022-10-20T07:45:57.298Z,4.90
2022-10-20T07:50:57.231Z,4.40
2022-10-20T07:55:57.157Z,4.40
2022-10-20T08:00:57.099Z,4.50
2022-10-20T08:05:57.028Z,4.90
2022-10-20T08:10:56.968Z,3.50
2022-10-20T08:15:57.141Z,4.30
2022-10-20T08:20:56.838Z,4.00
2022-10-20T08:25:56.763Z,3.09
2022-10-20T08:30:56.706Z,3.50
2022-10-20T08:35:56.642Z,3.20
2022-10-20T08:40:56.582Z,3.50
2022-10-20T08:45:56.512Z,3.00
2022-10-20T08:50:56.445Z,3.09
2022-10-20T08:55:56.385Z,2.70
2022-10-20T09:00:56.315Z,2.70
2022-10-20T09:05:56.248Z,3.09
2022-10-20T09:10:56.184Z,2.50
2022-10-20T09:15:56.120Z,2.50
2022-10-20T09:20:56.053Z,2.29
2022-10-20T09:25:55.989Z,2.59
2022-10-20T09:30:55.922Z,3.00
2022-10-20T09:35:55.861Z,2.00
2022-10-20T09:40:55.789Z,2.40
2022-10-20T09:45:55.728Z,2.70
2022-10-20T09:50:55.660Z,2.20
2022-10-20T09:55:55.586Z,2.40
2022-10-20T10:00:55.566Z,2.29
2022-10-20T10:05:55.461Z,2.09
2022-10-20T10:10:55.415Z,2.40
2022-10-20T10:15:55.325Z,2.20
2022-10-20T10:20:55.270Z,2.29
2022-10-20T10:25:59.143Z,2.79
2022-10-20T10:30:55.141Z,3.00
2022-10-20T10:35:55.080Z,2.59
2022-10-20T10:40:55.013Z,3.00
2022-10-20T10:45:54.949Z,2.29
2022-10-20T10:50:54.884Z,2.50
2022-10-20T10:55:54.861Z,2.00
2022-10-20T11:00:54.819Z,2.59
2022-10-20T11:05:54.699Z,1.90
2022-10-20T11:10:54.623Z,2.50
2022-10-20T11:15:54.544Z,4.00
2022-10-20T11:20:54.489Z,2.29
2022-10-20T11:25:54.415Z,2.50
2022-10-20T11:30:54.355Z,2.50
2022-10-20T11:35:54.284Z,2.59
2022-10-20T11:40:54.225Z,2.40
2022-10-20T11:45:54.169Z,2.59
2022-10-20T11:50:54.135Z,2.50
2022-10-20T11:55:54.024Z,2.59
2022-10-20T12:00:56.265Z,2.79
2022-10-20T12:05:53.891Z,2.70
2022-10-20T12:10:53.834Z,2.59
2022-10-20T12:15:53.759Z,2.40
2022-10-20T12:20:53.699Z,2.29
2022-10-20T12:25:53.625Z,2.70
2022-10-20T12:30:53.587Z,3.29
2022-10-20T12:35:53.493Z,2.40
2022-10-20T12:40:53.446Z,2.50
2022-10-20T12:45:53.361Z,2.79
2022-10-20T12:50:53.312Z,2.20
2022-10-20T12:55:53.245Z,2.20
2022-10-20T13:00:53.254Z,2.29
2022-10-20T13:05:53.101Z,2.29
2022-10-20T13:10:53.059Z,3.00
2022-10-20T13:15:52.973Z,2.40
2022-10-20T13:20:52.915Z,2.40
2022-10-20T13:25:52.845Z,2.70
2022-10-20T13:30:52.790Z,2.29
2022-10-20T13:35:52.716Z,2.29
2022-10-20T13:40:52.716Z,2.40
2022-10-20T13:45:52.589Z,2.09
2022-10-20T13:50:52.527Z,2.40
2022-10-20T13:55:52.454Z,2.09
2022-10-20T14:00:52.468Z,2.40
2022-10-20T14:05:52.323Z,2.50
2022-10-20T14:10:52.276Z,2.40
2022-10-20T14:15:52.198Z,2.20
2022-10-20T14:20:52.147Z,2.29
2022-10-20T14:25:52.063Z,2.09
2022-10-20T14:30:52.015Z,2.59
2022-10-20T14:35:51.931Z,2.40
2022-10-20T14:40:51.876Z,2.00
2022-10-20T14:45:51.805Z,2.59
2022-10-20T14:50:51.747Z,2.50
2022-10-20T14:55:51.679Z,2.00
2022-10-20T15:00:51.619Z,2.00
2022-10-20T15:05:51.546Z,2.20
2022-10-20T15:10:51.489Z,2.79
2022-10-20T15:15:51.417Z,2.50
2022-10-20T15:20:51.371Z,2.79
2022-10-20T15:25:51.290Z,3.09
2022-10-20T15:30:51.242Z,2.70
2022-10-20T15:35:51.180Z,3.00
2022-10-20T15:40:51.167Z,3.20
2022-10-20T15:45:51.036Z,2.79
2022-10-20T15:50:50.987Z,2.50
2022-10-20T15:55:50.900Z,2.40
2022-10-20T16:00:50.915Z,1.79
2022-10-20T16:05:50.770Z,2.00
2022-10-20T16:10:50.714Z,2.00
2022-10-20T16:15:50.640Z,1.90
2022-10-20T16:20:50.579Z,2.29
2022-10-20T16:25:50.507Z,2.70
2022-10-20T16:30:50.450Z,2.70
2022-10-20T16:35:50.374Z,2.59
2022-10-20T16:40:50.327Z,2.70
2022-10-20T16:45:50.245Z,2.29
2022-10-20T16:50:50.194Z,1.79
2022-10-20T16:55:50.110Z,2.09
2022-10-20T17:00:50.150Z,1.70
2022-10-20T17:05:49.977Z,1.90
2022-10-20T17:10:49.929Z,2.09
2022-10-20T17:15:49.854Z,2.00
2022-10-20T17:20:49.786Z,2.00
2022-10-20T17:25:49.724Z,2.20
2022-10-20T17:30:49.656Z,1.90
2022-10-20T17:35:49.590Z,2.29
2022-10-20T17:40:49.525Z,2.70
2022-10-20T17:45:49.458Z,2.29
2022-10-20T17:50:49.392Z,2.29
2022-10-20T17:55:49.321Z,2.79
2022-10-20T18:00:56.728Z,2.79
2022-10-20T18:05:49.187Z,2.70
2022-10-20T18:10:49.127Z,2.59
2022-10-20T18:15:49.056Z,2.79
2022-10-20T18:20:49.001Z,2.50
2022-10-20T18:25:48.925Z,3.09
2022-10-20T18:30:48.866Z,2.40
2022-10-20T18:35:48.804Z,2.29
2022-10-20T18:40:48.737Z,2.79
2022-10-20T18:45:48.673Z,2.70
2022-10-20T18:50:48.605Z,3.00
2022-10-20T18:55:48.539Z,2.79
2022-10-20T19:00:48.520Z,2.90
2022-10-20T19:05:48.411Z,2.50
2022-10-20T19:10:48.347Z,3.00
2022-10-20T19:15:48.268Z,2.79
2022-10-20T19:20:48.212Z,3.00
2022-10-20T19:25:48.150Z,3.09
2022-10-20T19:30:48.082Z,3.29
2022-10-20T19:35:48.011Z,3.29
2022-10-20T19:40:47.952Z,3.09
2022-10-20T19:45:49.774Z,3.59
2022-10-20T19:50:47.819Z,3.09
2022-10-20T19:55:47.747Z,2.70
2022-10-20T20:00:47.767Z,3.20
2022-10-20T20:05:48.402Z,2.90
2022-10-20T20:10:47.557Z,3.09
2022-10-20T20:15:47.484Z,2.79
2022-10-20T20:20:47.428Z,2.90
2022-10-20T20:25:47.406Z,3.20
2022-10-20T20:30:47.294Z,5.09
2022-10-20T20:35:47.231Z,3.40
2022-10-20T20:40:47.165Z,3.00
2022-10-20T20:45:47.100Z,3.40
2022-10-20T20:50:47.035Z,3.20
2022-10-20T20:55:46.970Z,2.90
2022-10-20T21:00:47.152Z,2.70
2022-10-20T21:05:47.188Z,2.40
2022-10-20T21:10:46.770Z,2.20
2022-10-20T21:15:46.696Z,3.09
2022-10-20T21:20:46.637Z,2.70
2022-10-20T21:25:46.563Z,2.70
2022-10-20T21:30:46.505Z,2.70
2022-10-20T21:35:46.432Z,2.90
2022-10-20T21:40:46.373Z,2.79
2022-10-20T21:45:46.300Z,2.59
2022-10-20T21:50:46.241Z,2.79
2022-10-20T21:55:46.178Z,2.70
2022-10-20T22:00:46.213Z,3.00
2022-10-20T22:05:46.046Z,3.00
2022-10-20T22:10:45.979Z,2.59
2022-10-20T22:15:46.030Z,2.79
2022-10-20T22:20:45.846Z,2.90
2022-10-20T22:25:45.873Z,3.29
2022-10-20T22:30:45.775Z,2.90
2022-10-20T22:35:45.692Z,3.00
2022-10-20T22:40:45.650Z,3.29
2022-10-20T22:45:45.559Z,3.00
2022-10-20T22:50:45.458Z,2.90
2022-10-20T22:55:45.379Z,3.00
2022-10-20T23:00:45.380Z,3.09
2022-10-20T23:05:45.243Z,3.29
2022-10-20T23:10:45.194Z,2.70
2022-10-20T23:15:45.164Z,3.50
2022-10-20T23:20:45.096Z,3.59
2022-10-20T23:25:44.982Z,3.79
2022-10-20T23:30:44.921Z,3.29
2022-10-20T23:35:44.850Z,3.40
2022-10-20T23:40:44.789Z,3.09
2022-10-20T23:45:44.715Z,2.90
2022-10-20T23:50:44.656Z,3.09
2022-10-20T23:55:44.582Z,3.09
